Langley, Canada
Current Conditions -  °F | °C
As of 12:00 PM on Thursday 29 Jan 2015 (Local Time) from CYXX Reporting Station
Broken Clouds Broken Clouds  
Wind Chill: 46°   Ceiling: 7500
Heat Index: 46°   Visibility: 30mi
Dew Point: 36°   Wind: 3mph
Humidity: 66%   Direction: 10°N
Pressure: 30.39"   Gusts: NA
Location:  49.1°N, 122.65°W
Report Text: CYXX 292000Z 01003KT 290V040 30SM BKN075 BKN200 08/02 A3039 RMK AC6CI1 CI TR SLP292
Loading
Personal Weather Stations






























Interactive Weather Map New forecast layout! Learn more

10-Day Weather Forecast

Advertisements
Track Severe Weather on mobile